sensor_id;sensor_type;location;lat;lon;timestamp;temperature;humidity
30702;DHT22;17451;49.908;7.980;2022-10-19T00:00:45;16.00;99.90
30702;DHT22;17451;49.908;7.980;2022-10-19T00:03:11;16.10;99.90
30702;DHT22;17451;49.908;7.980;2022-10-19T00:05:36;16.20;99.90
30702;DHT22;17451;49.908;7.980;2022-10-19T00:08:02;16.30;99.90
30702;DHT22;17451;49.908;7.980;2022-10-19T00:10:28;16.30;99.90
30702;DHT22;17451;49.908;7.980;2022-10-19T00:12:54;16.40;99.90
30702;DHT22;17451;49.908;7.980;2022-10-19T00:15:19;16.40;99.90
30702;DHT22;17451;49.908;7.980;2022-10-19T00:17:45;16.40;99.90
30702;DHT22;17451;49.908;7.980;2022-10-19T00:20:11;16.50;99.90
30702;DHT22;17451;49.908;7.980;2022-10-19T00:22:36;16.50;99.90
30702;DHT22;17451;49.908;7.980;2022-10-19T00:25:02;16.50;99.90
30702;DHT22;17451;49.908;7.980;2022-10-19T00:27:28;16.50;99.90
30702;DHT22;17451;49.908;7.980;2022-10-19T00:29:54;16.60;99.90
30702;DHT22;17451;49.908;7.980;2022-10-19T00:32:19;16.50;99.90
30702;DHT22;17451;49.908;7.980;2022-10-19T00:34:45;16.60;99.90
30702;DHT22;17451;49.908;7.980;2022-10-19T00:37:10;16.60;99.90
30702;DHT22;17451;49.908;7.980;2022-10-19T00:39:37;16.60;99.90
30702;DHT22;17451;49.908;7.980;2022-10-19T00:42:02;16.60;99.90
30702;DHT22;17451;49.908;7.980;2022-10-19T00:46:55;16.60;99.90
30702;DHT22;17451;49.908;7.980;2022-10-19T00:49:22;16.70;99.90
30702;DHT22;17451;49.908;7.980;2022-10-19T00:51:50;16.70;99.90
30702;DHT22;17451;49.908;7.980;2022-10-19T00:54:17;16.70;99.90
30702;DHT22;17451;49.908;7.980;2022-10-19T00:56:44;16.70;99.90
30702;DHT22;17451;49.908;7.980;2022-10-19T00:59:11;16.70;99.90
30702;DHT22;17451;49.908;7.980;2022-10-19T01:01:37;16.70;99.90
30702;DHT22;17451;49.908;7.980;2022-10-19T01:04:03;16.70;99.90
30702;DHT22;17451;49.908;7.980;2022-10-19T01:06:29;16.70;99.90
30702;DHT22;17451;49.908;7.980;2022-10-19T01:08:54;16.60;99.90
30702;DHT22;17451;49.908;7.980;2022-10-19T01:21:44;16.70;99.90
30702;DHT22;17451;49.908;7.980;2022-10-19T01:24:21;16.60;99.90
30702;DHT22;17451;49.908;7.980;2022-10-19T01:32:19;16.60;99.90
30702;DHT22;17451;49.908;7.980;2022-10-19T01:34:51;16.60;99.90
30702;DHT22;17451;49.908;7.980;2022-10-19T01:37:33;16.70;99.90
30702;DHT22;17451;49.908;7.980;2022-10-19T01:40:03;16.70;99.90
30702;DHT22;17451;49.908;7.980;2022-10-19T01:42:31;16.70;99.90
30702;DHT22;17451;49.908;7.980;2022-10-19T01:47:27;16.70;99.90
30702;DHT22;17451;49.908;7.980;2022-10-19T01:50:00;16.70;99.90
30702;DHT22;17451;49.908;7.980;2022-10-19T01:52:27;16.80;99.90
30702;DHT22;17451;49.908;7.980;2022-10-19T01:54:55;16.80;99.90
30702;DHT22;17451;49.908;7.980;2022-10-19T01:57:25;16.80;99.90
30702;DHT22;17451;49.908;7.980;2022-10-19T01:59:52;16.80;99.90
30702;DHT22;17451;49.908;7.980;2022-10-19T02:02:19;16.80;99.90
30702;DHT22;17451;49.908;7.980;2022-10-19T02:04:45;16.80;99.90
30702;DHT22;17451;49.908;7.980;2022-10-19T02:07:11;16.80;99.90
30702;DHT22;17451;49.908;7.980;2022-10-19T02:09:37;16.80;99.90
30702;DHT22;17451;49.908;7.980;2022-10-19T02:12:04;16.80;99.90
30702;DHT22;17451;49.908;7.980;2022-10-19T02:14:33;16.70;99.90
30702;DHT22;17451;49.908;7.980;2022-10-19T02:17:04;16.80;99.90
30702;DHT22;17451;49.908;7.980;2022-10-19T02:19:30;16.80;99.90
30702;DHT22;17451;49.908;7.980;2022-10-19T02:22:00;16.80;99.90
30702;DHT22;17451;49.908;7.980;2022-10-19T02:24:26;16.80;99.90
30702;DHT22;17451;49.908;7.980;2022-10-19T02:26:51;16.80;99.90
30702;DHT22;17451;49.908;7.980;2022-10-19T02:29:18;16.80;99.90
30702;DHT22;17451;49.908;7.980;2022-10-19T02:31:43;16.80;99.90
30702;DHT22;17451;49.908;7.980;2022-10-19T02:34:09;16.80;99.90
30702;DHT22;17451;49.908;7.980;2022-10-19T02:36:35;16.80;99.90
30702;DHT22;17451;49.908;7.980;2022-10-19T02:39:02;16.80;99.90
30702;DHT22;17451;49.908;7.980;2022-10-19T02:43:58;16.80;99.90
30702;DHT22;17451;49.908;7.980;2022-10-19T02:46:34;16.80;99.90
30702;DHT22;17451;49.908;7.980;2022-10-19T02:49:00;16.80;99.90
30702;DHT22;17451;49.908;7.980;2022-10-19T02:51:31;16.80;99.90
30702;DHT22;17451;49.908;7.980;2022-10-19T02:53:57;16.80;99.90
30702;DHT22;17451;49.908;7.980;2022-10-19T02:56:23;16.80;99.90
30702;DHT22;17451;49.908;7.980;2022-10-19T02:58:49;16.80;99.90
30702;DHT22;17451;49.908;7.980;2022-10-19T03:01:14;16.70;99.90
30702;DHT22;17451;49.908;7.980;2022-10-19T03:03:40;16.70;99.90
30702;DHT22;17451;49.908;7.980;2022-10-19T03:06:06;16.70;99.90
30702;DHT22;17451;49.908;7.980;2022-10-19T03:08:31;16.70;99.90
30702;DHT22;17451;49.908;7.980;2022-10-19T03:10:57;16.70;99.90
30702;DHT22;17451;49.908;7.980;2022-10-19T03:13:23;16.70;99.90
30702;DHT22;17451;49.908;7.980;2022-10-19T03:15:49;16.70;99.90
30702;DHT22;17451;49.908;7.980;2022-10-19T03:18:14;16.70;99.90
30702;DHT22;17451;49.908;7.980;2022-10-19T03:20:40;16.60;99.90
30702;DHT22;17451;49.908;7.980;2022-10-19T03:23:05;16.70;99.90
30702;DHT22;17451;49.908;7.980;2022-10-19T03:25:31;16.70;99.90
30702;DHT22;17451;49.908;7.980;2022-10-19T03:27:57;16.70;99.90
30702;DHT22;17451;49.908;7.980;2022-10-19T03:30:22;16.70;99.90
30702;DHT22;17451;49.908;7.980;2022-10-19T03:32:48;16.60;99.90
30702;DHT22;17451;49.908;7.980;2022-10-19T03:35:14;16.60;99.90
30702;DHT22;17451;49.908;7.980;2022-10-19T03:37:39;16.50;99.90
30702;DHT22;17451;49.908;7.980;2022-10-19T03:40:05;16.50;99.90
30702;DHT22;17451;49.908;7.980;2022-10-19T03:42:31;16.50;99.90
30702;DHT22;17451;49.908;7.980;2022-10-19T03:44:56;16.60;99.90
30702;DHT22;17451;49.908;7.980;2022-10-19T03:47:22;16.50;99.90
30702;DHT22;17451;49.908;7.980;2022-10-19T03:49:48;16.60;99.90
30702;DHT22;17451;49.908;7.980;2022-10-19T03:52:16;16.50;99.90
30702;DHT22;17451;49.908;7.980;2022-10-19T03:54:41;16.50;99.90
30702;DHT22;17451;49.908;7.980;2022-10-19T03:57:07;16.50;99.90
30702;DHT22;17451;49.908;7.980;2022-10-19T03:59:35;16.40;99.90
30702;DHT22;17451;49.908;7.980;2022-10-19T04:02:01;16.50;99.90
30702;DHT22;17451;49.908;7.980;2022-10-19T04:04:27;16.40;99.90
30702;DHT22;17451;49.908;7.980;2022-10-19T04:06:52;16.40;99.90
30702;DHT22;17451;49.908;7.980;2022-10-19T04:09:19;16.40;99.90
30702;DHT22;17451;49.908;7.980;2022-10-19T04:11:45;16.40;99.90
30702;DHT22;17451;49.908;7.980;2022-10-19T04:14:12;16.30;99.90
30702;DHT22;17451;49.908;7.980;2022-10-19T04:16:38;16.30;99.90
30702;DHT22;17451;49.908;7.980;2022-10-19T04:19:03;16.30;99.90
30702;DHT22;17451;49.908;7.980;2022-10-19T04:21:33;16.40;99.90
30702;DHT22;17451;49.908;7.980;2022-10-19T04:24:00;16.40;99.90
30702;DHT22;17451;49.908;7.980;2022-10-19T04:26:26;16.30;99.90
30702;DHT22;17451;49.908;7.980;2022-10-19T04:28:52;16.30;99.90
30702;DHT22;17451;49.908;7.980;2022-10-19T04:31:17;16.10;99.90
30702;DHT22;17451;49.908;7.980;2022-10-19T04:33:43;16.10;99.90
30702;DHT22;17451;49.908;7.980;2022-10-19T04:36:10;16.20;99.90
30702;DHT22;17451;49.908;7.980;2022-10-19T04:38:36;16.20;99.90
30702;DHT22;17451;49.908;7.980;2022-10-19T04:41:03;16.10;99.90
30702;DHT22;17451;49.908;7.980;2022-10-19T04:43:29;16.10;99.90
30702;DHT22;17451;49.908;7.980;2022-10-19T04:45:55;16.10;99.90
30702;DHT22;17451;49.908;7.980;2022-10-19T04:48:21;16.10;99.90
30702;DHT22;17451;49.908;7.980;2022-10-19T04:50:47;16.10;99.90
30702;DHT22;17451;49.908;7.980;2022-10-19T04:53:12;16.10;99.90
30702;DHT22;17451;49.908;7.980;2022-10-19T04:55:41;16.10;99.90
30702;DHT22;17451;49.908;7.980;2022-10-19T04:58:07;16.10;99.90
30702;DHT22;17451;49.908;7.980;2022-10-19T05:00:32;16.10;99.90
30702;DHT22;17451;49.908;7.980;2022-10-19T05:02:58;16.10;99.90
30702;DHT22;17451;49.908;7.980;2022-10-19T05:05:24;16.20;99.90
30702;DHT22;17451;49.908;7.980;2022-10-19T05:07:51;16.20;99.90
30702;DHT22;17451;49.908;7.980;2022-10-19T05:10:17;16.30;99.90
30702;DHT22;17451;49.908;7.980;2022-10-19T05:12:42;16.20;99.90
30702;DHT22;17451;49.908;7.980;2022-10-19T05:15:08;16.20;99.90
30702;DHT22;17451;49.908;7.980;2022-10-19T05:17:34;16.20;99.90
30702;DHT22;17451;49.908;7.980;2022-10-19T05:20:00;16.20;99.90
30702;DHT22;17451;49.908;7.980;2022-10-19T05:22:25;16.20;99.90
30702;DHT22;17451;49.908;7.980;2022-10-19T05:24:51;16.30;99.90
30702;DHT22;17451;49.908;7.980;2022-10-19T05:27:16;16.30;99.90
30702;DHT22;17451;49.908;7.980;2022-10-19T05:29:42;16.30;99.90
30702;DHT22;17451;49.908;7.980;2022-10-19T05:32:08;16.30;99.90
30702;DHT22;17451;49.908;7.980;2022-10-19T05:34:33;16.30;99.90
30702;DHT22;17451;49.908;7.980;2022-10-19T05:36:59;16.30;99.90
30702;DHT22;17451;49.908;7.980;2022-10-19T05:39:25;16.30;99.90
30702;DHT22;17451;49.908;7.980;2022-10-19T05:41:50;16.30;99.90
30702;DHT22;17451;49.908;7.980;2022-10-19T05:44:17;16.30;99.90
30702;DHT22;17451;49.908;7.980;2022-10-19T05:46:43;16.20;99.90
30702;DHT22;17451;49.908;7.980;2022-10-19T05:49:09;16.20;99.90
30702;DHT22;17451;49.908;7.980;2022-10-19T05:51:35;16.20;99.90
30702;DHT22;17451;49.908;7.980;2022-10-19T05:54:00;16.20;99.90
30702;DHT22;17451;49.908;7.980;2022-10-19T05:56:27;16.20;99.90
30702;DHT22;17451;49.908;7.980;2022-10-19T05:58:54;16.10;99.90
30702;DHT22;17451;49.908;7.980;2022-10-19T06:01:20;16.10;99.90
30702;DHT22;17451;49.908;7.980;2022-10-19T06:03:46;15.80;99.90
30702;DHT22;17451;49.908;7.980;2022-10-19T06:06:15;15.90;99.90
30702;DHT22;17451;49.908;7.980;2022-10-19T06:08:40;15.90;99.90
30702;DHT22;17451;49.908;7.980;2022-10-19T06:11:08;15.90;99.90
30702;DHT22;17451;49.908;7.980;2022-10-19T06:13:34;15.90;99.90
30702;DHT22;17451;49.908;7.980;2022-10-19T06:16:00;16.00;99.90
30702;DHT22;17451;49.908;7.980;2022-10-19T06:18:25;16.00;99.90
30702;DHT22;17451;49.908;7.980;2022-10-19T06:20:51;16.10;99.90
30702;DHT22;17451;49.908;7.980;2022-10-19T06:23:17;16.10;99.90
30702;DHT22;17451;49.908;7.980;2022-10-19T06:25:42;16.00;99.90
30702;DHT22;17451;49.908;7.980;2022-10-19T06:28:08;15.80;99.90
30702;DHT22;17451;49.908;7.980;2022-10-19T06:30:38;15.80;99.90
30702;DHT22;17451;49.908;7.980;2022-10-19T06:33:04;15.90;99.90
30702;DHT22;17451;49.908;7.980;2022-10-19T06:35:30;15.90;99.90
30702;DHT22;17451;49.908;7.980;2022-10-19T06:37:55;15.70;99.90
30702;DHT22;17451;49.908;7.980;2022-10-19T06:40:22;15.70;99.90
30702;DHT22;17451;49.908;7.980;2022-10-19T06:42:48;15.70;99.90
30702;DHT22;17451;49.908;7.980;2022-10-19T06:45:13;15.70;99.90
30702;DHT22;17451;49.908;7.980;2022-10-19T06:47:39;15.70;99.90
30702;DHT22;17451;49.908;7.980;2022-10-19T06:50:05;15.70;99.90
30702;DHT22;17451;49.908;7.980;2022-10-19T06:52:31;15.70;99.90
30702;DHT22;17451;49.908;7.980;2022-10-19T06:54:57;15.60;99.90
30702;DHT22;17451;49.908;7.980;2022-10-19T06:57:23;15.70;99.90
30702;DHT22;17451;49.908;7.980;2022-10-19T06:59:48;15.70;99.90
30702;DHT22;17451;49.908;7.980;2022-10-19T07:02:14;15.80;99.90
30702;DHT22;17451;49.908;7.980;2022-10-19T07:04:40;15.80;99.90
30702;DHT22;17451;49.908;7.980;2022-10-19T07:07:06;15.90;99.90
30702;DHT22;17451;49.908;7.980;2022-10-19T07:09:31;15.90;99.90
30702;DHT22;17451;49.908;7.980;2022-10-19T07:12:00;16.00;99.90
30702;DHT22;17451;49.908;7.980;2022-10-19T07:14:26;16.10;99.90
30702;DHT22;17451;49.908;7.980;2022-10-19T07:16:55;16.10;99.90
30702;DHT22;17451;49.908;7.980;2022-10-19T07:19:24;16.20;99.90
30702;DHT22;17451;49.908;7.980;2022-10-19T07:21:50;16.20;99.90
30702;DHT22;17451;49.908;7.980;2022-10-19T07:24:16;16.20;99.90
30702;DHT22;17451;49.908;7.980;2022-10-19T07:26:42;16.30;99.90
30702;DHT22;17451;49.908;7.980;2022-10-19T07:29:08;16.30;99.90
30702;DHT22;17451;49.908;7.980;2022-10-19T07:31:34;16.40;99.90
30702;DHT22;17451;49.908;7.980;2022-10-19T07:34:00;16.40;99.90
30702;DHT22;17451;49.908;7.980;2022-10-19T07:36:27;16.30;99.90
30702;DHT22;17451;49.908;7.980;2022-10-19T07:38:53;16.30;99.90
30702;DHT22;17451;49.908;7.980;2022-10-19T07:41:19;16.40;99.90
30702;DHT22;17451;49.908;7.980;2022-10-19T07:43:46;16.50;99.90
30702;DHT22;17451;49.908;7.980;2022-10-19T07:46:13;16.60;99.90
30702;DHT22;17451;49.908;7.980;2022-10-19T07:48:39;16.70;99.90
30702;DHT22;17451;49.908;7.980;2022-10-19T07:51:05;16.80;99.90
30702;DHT22;17451;49.908;7.980;2022-10-19T07:53:32;16.90;99.90
30702;DHT22;17451;49.908;7.980;2022-10-19T07:56:05;16.90;99.90
30702;DHT22;17451;49.908;7.980;2022-10-19T07:58:31;16.40;99.90
30702;DHT22;17451;49.908;7.980;2022-10-19T08:01:00;16.40;99.90
30702;DHT22;17451;49.908;7.980;2022-10-19T08:03:26;16.20;99.90
30702;DHT22;17451;49.908;7.980;2022-10-19T08:05:51;16.30;99.90
30702;DHT22;17451;49.908;7.980;2022-10-19T08:08:17;16.30;99.90
30702;DHT22;17451;49.908;7.980;2022-10-19T08:10:43;16.20;99.90
30702;DHT22;17451;49.908;7.980;2022-10-19T08:13:08;16.30;99.90
30702;DHT22;17451;49.908;7.980;2022-10-19T08:15:34;16.20;99.90
30702;DHT22;17451;49.908;7.980;2022-10-19T08:18:00;16.40;99.90
30702;DHT22;17451;49.908;7.980;2022-10-19T08:20:25;16.30;99.90
30702;DHT22;17451;49.908;7.980;2022-10-19T08:22:51;16.40;99.90
30702;DHT22;17451;49.908;7.980;2022-10-19T08:25:17;16.70;99.90
30702;DHT22;17451;49.908;7.980;2022-10-19T08:27:42;16.90;99.90
30702;DHT22;17451;49.908;7.980;2022-10-19T08:30:08;17.00;99.90
30702;DHT22;17451;49.908;7.980;2022-10-19T08:32:34;17.00;99.90
30702;DHT22;17451;49.908;7.980;2022-10-19T08:35:00;16.90;99.90
30702;DHT22;17451;49.908;7.980;2022-10-19T08:37:28;17.00;99.90
30702;DHT22;17451;49.908;7.980;2022-10-19T08:39:54;17.00;99.90
30702;DHT22;17451;49.908;7.980;2022-10-19T08:42:22;17.30;99.90
30702;DHT22;17451;49.908;7.980;2022-10-19T08:45:02;17.40;99.90
30702;DHT22;17451;49.908;7.980;2022-10-19T08:47:45;17.80;99.90
30702;DHT22;17451;49.908;7.980;2022-10-19T08:50:18;18.10;99.90
30702;DHT22;17451;49.908;7.980;2022-10-19T08:52:45;18.30;99.90
30702;DHT22;17451;49.908;7.980;2022-10-19T08:55:12;18.30;99.90
30702;DHT22;17451;49.908;7.980;2022-10-19T09:05:04;17.90;99.90
30702;DHT22;17451;49.908;7.980;2022-10-19T09:07:32;17.90;99.90
30702;DHT22;17451;49.908;7.980;2022-10-19T09:10:15;17.40;99.90
30702;DHT22;17451;49.908;7.980;2022-10-19T09:12:51;17.20;99.90
30702;DHT22;17451;49.908;7.980;2022-10-19T09:15:19;17.10;99.90
30702;DHT22;17451;49.908;7.980;2022-10-19T09:17:46;17.20;99.90
30702;DHT22;17451;49.908;7.980;2022-10-19T09:20:22;17.40;99.90
30702;DHT22;17451;49.908;7.980;2022-10-19T09:22:58;17.60;99.90
30702;DHT22;17451;49.908;7.980;2022-10-19T09:25:25;17.30;99.90
30702;DHT22;17451;49.908;7.980;2022-10-19T09:28:17;17.60;99.90
30702;DHT22;17451;49.908;7.980;2022-10-19T09:30:39;17.90;99.90
30702;DHT22;17451;49.908;7.980;2022-10-19T09:33:07;18.40;99.90
30702;DHT22;17451;49.908;7.980;2022-10-19T09:35:37;18.70;99.90
30702;DHT22;17451;49.908;7.980;2022-10-19T09:38:08;19.00;99.90
30702;DHT22;17451;49.908;7.980;2022-10-19T09:40:34;19.50;99.90
30702;DHT22;17451;49.908;7.980;2022-10-19T09:43:00;19.80;99.90
30702;DHT22;17451;49.908;7.980;2022-10-19T09:45:51;20.20;99.90
30702;DHT22;17451;49.908;7.980;2022-10-19T09:48:30;21.30;99.90
30702;DHT22;17451;49.908;7.980;2022-10-19T09:50:58;22.40;99.90
30702;DHT22;17451;49.908;7.980;2022-10-19T09:53:32;23.30;99.90
30702;DHT22;17451;49.908;7.980;2022-10-19T09:55:59;24.00;99.90
30702;DHT22;17451;49.908;7.980;2022-10-19T09:58:29;25.40;99.90
30702;DHT22;17451;49.908;7.980;2022-10-19T10:00:55;25.70;99.90
30702;DHT22;17451;49.908;7.980;2022-10-19T10:03:32;26.00;99.90
30702;DHT22;17451;49.908;7.980;2022-10-19T10:06:09;27.20;99.90
30702;DHT22;17451;49.908;7.980;2022-10-19T10:08:36;28.10;99.90
30702;DHT22;17451;49.908;7.980;2022-10-19T10:11:07;29.30;99.90
30702;DHT22;17451;49.908;7.980;2022-10-19T10:13:41;29.40;99.90
30702;DHT22;17451;49.908;7.980;2022-10-19T10:16:07;28.60;99.90
30702;DHT22;17451;49.908;7.980;2022-10-19T10:18:38;28.30;99.90
30702;DHT22;17451;49.908;7.980;2022-10-19T10:21:12;27.40;99.90
30702;DHT22;17451;49.908;7.980;2022-10-19T10:23:38;26.20;99.90
30702;DHT22;17451;49.908;7.980;2022-10-19T10:26:14;25.70;99.90
30702;DHT22;17451;49.908;7.980;2022-10-19T10:28:47;25.70;99.90
30702;DHT22;17451;49.908;7.980;2022-10-19T10:31:13;24.90;99.90
30702;DHT22;17451;49.908;7.980;2022-10-19T10:33:39;23.40;99.90
30702;DHT22;17451;49.908;7.980;2022-10-19T10:36:06;22.60;99.90
30702;DHT22;17451;49.908;7.980;2022-10-19T10:38:39;22.40;99.90
30702;DHT22;17451;49.908;7.980;2022-10-19T10:41:09;22.50;99.90
30702;DHT22;17451;49.908;7.980;2022-10-19T10:43:36;22.50;99.90
30702;DHT22;17451;49.908;7.980;2022-10-19T10:46:07;23.10;99.90
30702;DHT22;17451;49.908;7.980;2022-10-19T10:48:39;24.10;99.90
30702;DHT22;17451;49.908;7.980;2022-10-19T10:51:26;24.80;99.90
30702;DHT22;17451;49.908;7.980;2022-10-19T10:54:05;26.20;99.90
30702;DHT22;17451;49.908;7.980;2022-10-19T10:56:31;26.60;99.90
30702;DHT22;17451;49.908;7.980;2022-10-19T10:58:59;26.80;99.90
30702;DHT22;17451;49.908;7.980;2022-10-19T11:01:35;27.40;99.90
30702;DHT22;17451;49.908;7.980;2022-10-19T11:04:03;27.50;99.90
30702;DHT22;17451;49.908;7.980;2022-10-19T11:06:30;27.20;99.90
30702;DHT22;17451;49.908;7.980;2022-10-19T11:09:41;27.90;99.90
30702;DHT22;17451;49.908;7.980;2022-10-19T11:11:47;28.40;99.90
30702;DHT22;17451;49.908;7.980;2022-10-19T11:16:52;28.40;98.10
30702;DHT22;17451;49.908;7.980;2022-10-19T11:19:19;27.00;99.90
30702;DHT22;17451;49.908;7.980;2022-10-19T11:27:12;27.90;99.30
30702;DHT22;17451;49.908;7.980;2022-10-19T11:29:49;26.90;99.90
30702;DHT22;17451;49.908;7.980;2022-10-19T11:40:41;29.10;97.40
30702;DHT22;17451;49.908;7.980;2022-10-19T11:43:26;28.40;98.30
30702;DHT22;17451;49.908;7.980;2022-10-19T11:46:16;28.10;98.90
30702;DHT22;17451;49.908;7.980;2022-10-19T11:51:15;29.30;97.40
30702;DHT22;17451;49.908;7.980;2022-10-19T12:01:24;26.70;99.50
30702;DHT22;17451;49.908;7.980;2022-10-19T12:14:21;24.50;99.90
30702;DHT22;17451;49.908;7.980;2022-10-19T12:16:53;22.30;99.90
30702;DHT22;17451;49.908;7.980;2022-10-19T12:19:31;21.00;99.90
30702;DHT22;17451;49.908;7.980;2022-10-19T12:22:02;20.50;99.90
30702;DHT22;17451;49.908;7.980;2022-10-19T12:24:29;20.00;99.90
30702;DHT22;17451;49.908;7.980;2022-10-19T12:26:57;19.60;99.90
30702;DHT22;17451;49.908;7.980;2022-10-19T12:31:51;18.60;99.90
30702;DHT22;17451;49.908;7.980;2022-10-19T12:37:05;18.50;99.90
30702;DHT22;17451;49.908;7.980;2022-10-19T12:45:05;18.10;99.90
30702;DHT22;17451;49.908;7.980;2022-10-19T12:47:34;18.00;99.90
30702;DHT22;17451;49.908;7.980;2022-10-19T12:49:59;18.00;99.90
30702;DHT22;17451;49.908;7.980;2022-10-19T12:52:41;18.00;99.90
30702;DHT22;17451;49.908;7.980;2022-10-19T12:55:27;17.80;99.90
30702;DHT22;17451;49.908;7.980;2022-10-19T13:00:29;17.80;99.90
30702;DHT22;17451;49.908;7.980;2022-10-19T13:03:02;17.90;99.90
30702;DHT22;17451;49.908;7.980;2022-10-19T13:05:29;18.00;99.90
30702;DHT22;17451;49.908;7.980;2022-10-19T13:07:55;17.80;99.90
30702;DHT22;17451;49.908;7.980;2022-10-19T13:10:22;17.70;99.90
30702;DHT22;17451;49.908;7.980;2022-10-19T13:12:49;17.70;99.90
30702;DHT22;17451;49.908;7.980;2022-10-19T13:18:15;17.80;99.90
30702;DHT22;17451;49.908;7.980;2022-10-19T13:21:00;17.80;99.90
30702;DHT22;17451;49.908;7.980;2022-10-19T13:28:36;17.80;99.90
30702;DHT22;17451;49.908;7.980;2022-10-19T13:31:02;18.00;99.90
30702;DHT22;17451;49.908;7.980;2022-10-19T13:38:25;17.80;99.90
30702;DHT22;17451;49.908;7.980;2022-10-19T13:43:20;17.60;99.90
30702;DHT22;17451;49.908;7.980;2022-10-19T13:45:53;17.50;99.90
30702;DHT22;17451;49.908;7.980;2022-10-19T13:48:23;17.60;99.90
30702;DHT22;17451;49.908;7.980;2022-10-19T13:50:56;17.70;99.90
30702;DHT22;17451;49.908;7.980;2022-10-19T14:11:01;18.10;99.90
30702;DHT22;17451;49.908;7.980;2022-10-19T14:13:27;18.20;99.90
30702;DHT22;17451;49.908;7.980;2022-10-19T14:15:57;18.10;99.90
30702;DHT22;17451;49.908;7.980;2022-10-19T14:18:34;18.30;99.90
30702;DHT22;17451;49.908;7.980;2022-10-19T14:21:02;18.30;99.90
30702;DHT22;17451;49.908;7.980;2022-10-19T14:23:29;18.10;99.90
30702;DHT22;17451;49.908;7.980;2022-10-19T14:26:06;17.80;99.90
30702;DHT22;17451;49.908;7.980;2022-10-19T14:28:36;17.90;99.90
30702;DHT22;17451;49.908;7.980;2022-10-19T14:31:07;17.90;99.90
30702;DHT22;17451;49.908;7.980;2022-10-19T14:33:44;17.60;99.90
30702;DHT22;17451;49.908;7.980;2022-10-19T14:36:20;17.50;99.90
30702;DHT22;17451;49.908;7.980;2022-10-19T14:38:47;17.40;99.90
30702;DHT22;17451;49.908;7.980;2022-10-19T14:41:27;17.20;99.90
30702;DHT22;17451;49.908;7.980;2022-10-19T14:43:54;17.10;99.90
30702;DHT22;17451;49.908;7.980;2022-10-19T14:46:20;17.00;99.90
30702;DHT22;17451;49.908;7.980;2022-10-19T14:48:47;17.00;99.90
30702;DHT22;17451;49.908;7.980;2022-10-19T14:51:35;17.20;99.90
30702;DHT22;17451;49.908;7.980;2022-10-19T14:54:02;17.00;99.90
30702;DHT22;17451;49.908;7.980;2022-10-19T14:59:06;17.00;99.90
30702;DHT22;17451;49.908;7.980;2022-10-19T15:01:36;17.10;99.90
30702;DHT22;17451;49.908;7.980;2022-10-19T15:04:02;17.30;99.90
30702;DHT22;17451;49.908;7.980;2022-10-19T15:06:31;17.30;99.90
30702;DHT22;17451;49.908;7.980;2022-10-19T15:09:04;17.20;99.90
30702;DHT22;17451;49.908;7.980;2022-10-19T15:11:37;17.20;99.90
30702;DHT22;17451;49.908;7.980;2022-10-19T15:14:08;17.10;99.90
30702;DHT22;17451;49.908;7.980;2022-10-19T15:16:40;17.10;99.90
30702;DHT22;17451;49.908;7.980;2022-10-19T15:19:14;17.20;99.90
30702;DHT22;17451;49.908;7.980;2022-10-19T15:21:40;17.10;99.90
30702;DHT22;17451;49.908;7.980;2022-10-19T15:24:07;17.00;99.90
30702;DHT22;17451;49.908;7.980;2022-10-19T15:26:40;16.80;99.90
30702;DHT22;17451;49.908;7.980;2022-10-19T15:29:21;16.90;99.90
30702;DHT22;17451;49.908;7.980;2022-10-19T15:31:48;17.00;99.90
30702;DHT22;17451;49.908;7.980;2022-10-19T15:34:32;17.10;99.90
30702;DHT22;17451;49.908;7.980;2022-10-19T15:37:00;17.10;99.90
30702;DHT22;17451;49.908;7.980;2022-10-19T15:39:31;17.10;99.90
30702;DHT22;17451;49.908;7.980;2022-10-19T15:44:42;17.00;99.90
30702;DHT22;17451;49.908;7.980;2022-10-19T15:47:13;16.90;99.90
30702;DHT22;17451;49.908;7.980;2022-10-19T15:54:39;16.50;99.90
30702;DHT22;17451;49.908;7.980;2022-10-19T15:57:18;16.30;99.90
30702;DHT22;17451;49.908;7.980;2022-10-19T15:59:45;16.20;99.90
30702;DHT22;17451;49.908;7.980;2022-10-19T16:02:13;16.10;99.90
30702;DHT22;17451;49.908;7.980;2022-10-19T16:04:38;16.10;99.90
30702;DHT22;17451;49.908;7.980;2022-10-19T16:07:04;15.90;99.90
30702;DHT22;17451;49.908;7.980;2022-10-19T16:09:30;15.90;99.90
30702;DHT22;17451;49.908;7.980;2022-10-19T16:11:56;15.90;99.90
30702;DHT22;17451;49.908;7.980;2022-10-19T16:14:24;15.90;99.90
30702;DHT22;17451;49.908;7.980;2022-10-19T16:16:54;16.10;99.90
30702;DHT22;17451;49.908;7.980;2022-10-19T16:19:19;16.10;99.90
30702;DHT22;17451;49.908;7.980;2022-10-19T16:21:45;16.10;99.90
30702;DHT22;17451;49.908;7.980;2022-10-19T16:24:11;16.10;99.90
30702;DHT22;17451;49.908;7.980;2022-10-19T16:26:36;16.20;99.90
30702;DHT22;17451;49.908;7.980;2022-10-19T16:29:02;16.10;99.90
30702;DHT22;17451;49.908;7.980;2022-10-19T16:31:28;15.90;99.90
30702;DHT22;17451;49.908;7.980;2022-10-19T16:33:54;15.80;99.90
30702;DHT22;17451;49.908;7.980;2022-10-19T16:36:19;15.90;99.90
30702;DHT22;17451;49.908;7.980;2022-10-19T16:38:45;15.70;99.90
30702;DHT22;17451;49.908;7.980;2022-10-19T16:41:11;15.60;99.90
30702;DHT22;17451;49.908;7.980;2022-10-19T16:43:37;15.50;99.90
30702;DHT22;17451;49.908;7.980;2022-10-19T16:46:03;15.40;99.90
30702;DHT22;17451;49.908;7.980;2022-10-19T16:48:29;15.40;99.90
30702;DHT22;17451;49.908;7.980;2022-10-19T16:53:30;15.30;99.90
30702;DHT22;17451;49.908;7.980;2022-10-19T16:56:08;15.30;99.90
30702;DHT22;17451;49.908;7.980;2022-10-19T16:58:34;15.40;99.90
30702;DHT22;17451;49.908;7.980;2022-10-19T17:01:12;15.50;99.90
30702;DHT22;17451;49.908;7.980;2022-10-19T17:03:38;15.50;99.90
30702;DHT22;17451;49.908;7.980;2022-10-19T17:06:04;15.40;99.90
30702;DHT22;17451;49.908;7.980;2022-10-19T17:08:30;15.30;99.90
30702;DHT22;17451;49.908;7.980;2022-10-19T17:10:56;15.20;99.90
30702;DHT22;17451;49.908;7.980;2022-10-19T17:13:22;15.20;99.90
30702;DHT22;17451;49.908;7.980;2022-10-19T17:15:47;15.20;99.90
30702;DHT22;17451;49.908;7.980;2022-10-19T17:18:13;15.10;99.90
30702;DHT22;17451;49.908;7.980;2022-10-19T17:20:38;15.00;99.90
30702;DHT22;17451;49.908;7.980;2022-10-19T17:23:04;14.80;99.90
30702;DHT22;17451;49.908;7.980;2022-10-19T17:25:30;14.80;99.90
30702;DHT22;17451;49.908;7.980;2022-10-19T17:27:55;14.70;99.90
30702;DHT22;17451;49.908;7.980;2022-10-19T17:30:21;14.70;99.90
30702;DHT22;17451;49.908;7.980;2022-10-19T17:32:47;14.60;99.90
30702;DHT22;17451;49.908;7.980;2022-10-19T17:35:12;14.60;99.90
30702;DHT22;17451;49.908;7.980;2022-10-19T17:37:38;14.60;99.90
30702;DHT22;17451;49.908;7.980;2022-10-19T17:40:04;14.50;99.90
30702;DHT22;17451;49.908;7.980;2022-10-19T17:42:30;14.40;99.90